createdAt,value
2023-02-14T00:02:25.152Z,69.31
2023-02-14T00:05:03.160Z,69.09
2023-02-14T00:07:33.536Z,69.03
2023-02-14T00:10:10.909Z,69.41
2023-02-14T00:12:41.474Z,69.00
2023-02-14T00:15:26.158Z,69.11
2023-02-14T00:18:06.832Z,69.14
2023-02-14T00:20:44.647Z,69.34
2023-02-14T00:23:21.864Z,69.38
2023-02-14T00:25:59.835Z,69.56
2023-02-14T00:28:30.678Z,69.56
2023-02-14T00:31:07.503Z,69.65
2023-02-14T00:33:44.985Z,69.64
2023-02-14T00:36:24.019Z,69.66
2023-02-14T00:38:54.241Z,69.62
2023-02-14T00:41:31.026Z,69.48
2023-02-14T00:44:10.829Z,69.57
2023-02-14T00:46:47.513Z,69.75
2023-02-14T00:49:24.933Z,69.79
2023-02-14T00:52:02.468Z,69.92
2023-02-14T00:54:39.170Z,70.01
2023-02-14T00:57:17.688Z,70.20
2023-02-14T00:59:55.088Z,70.19
2023-02-14T01:02:32.747Z,70.41
2023-02-14T01:05:10.973Z,70.39
2023-02-14T01:07:41.690Z,70.77
2023-02-14T01:10:13.381Z,70.66
2023-02-14T01:12:44.316Z,70.64
2023-02-14T01:15:22.749Z,70.62
2023-02-14T01:18:00.525Z,70.69
2023-02-14T01:20:38.188Z,70.97
2023-02-14T01:23:16.519Z,70.99
2023-02-14T01:25:48.604Z,70.97
2023-02-14T01:28:19.578Z,71.24
2023-02-14T01:30:49.629Z,71.19
2023-02-14T01:33:28.090Z,71.16
2023-02-14T01:36:05.416Z,71.08
2023-02-14T01:38:42.888Z,71.50
2023-02-14T01:41:22.188Z,71.65
2023-02-14T01:44:09.452Z,71.72
2023-02-14T01:46:42.878Z,71.63
2023-02-14T01:49:38.540Z,71.69
2023-02-14T01:52:19.643Z,71.91
2023-02-14T01:55:08.261Z,71.96
2023-02-14T01:58:10.990Z,72.26
2023-02-14T02:01:00.901Z,72.29
2023-02-14T02:04:03.730Z,72.29
2023-02-14T02:06:48.093Z,72.31
2023-02-14T02:09:36.347Z,72.35
2023-02-14T02:12:13.509Z,72.56
2023-02-14T02:14:51.523Z,72.65
2023-02-14T02:17:58.075Z,72.57
2023-02-14T02:20:43.276Z,72.86
2023-02-14T02:23:30.919Z,72.85
2023-02-14T02:26:38.468Z,73.20
2023-02-14T02:30:27.189Z,72.95
2023-02-14T02:33:21.541Z,72.88
2023-02-14T02:36:12.068Z,72.82
2023-02-14T02:39:14.545Z,73.08
2023-02-14T02:42:04.134Z,73.05
2023-02-14T02:45:01.032Z,73.02
2023-02-14T02:48:08.111Z,73.33
2023-02-14T02:51:16.321Z,73.36
2023-02-14T02:54:04.204Z,73.48
2023-02-14T02:56:53.791Z,73.51
2023-02-14T02:59:38.397Z,73.50
2023-02-14T03:02:17.218Z,73.54
2023-02-14T03:04:57.356Z,73.47
2023-02-14T03:07:40.241Z,73.68
2023-02-14T03:10:34.314Z,73.81
2023-02-14T03:13:49.625Z,73.75
2023-02-14T03:16:33.411Z,73.63
2023-02-14T03:20:01.899Z,73.90
2023-02-14T03:22:54.355Z,73.87
2023-02-14T03:25:48.790Z,74.23
2023-02-14T03:28:50.344Z,74.14
2023-02-14T03:31:43.170Z,74.17
2023-02-14T03:34:33.002Z,74.15
2023-02-14T03:37:30.594Z,74.12
2023-02-14T03:40:18.260Z,74.07
2023-02-14T03:43:20.668Z,74.21
2023-02-14T03:46:12.315Z,74.50
2023-02-14T03:48:53.354Z,74.55
2023-02-14T03:51:35.871Z,74.64
2023-02-14T03:54:11.652Z,74.74
2023-02-14T03:57:20.584Z,74.98
2023-02-14T03:59:59.405Z,74.84
2023-02-14T04:03:03.002Z,74.92
2023-02-14T04:05:35.060Z,75.11
2023-02-14T04:08:13.201Z,74.89
2023-02-14T04:10:51.181Z,75.15
2023-02-14T04:13:28.638Z,75.05
2023-02-14T04:16:07.025Z,75.11
2023-02-14T04:19:04.047Z,75.23
2023-02-14T04:21:34.843Z,75.02
2023-02-14T04:24:13.557Z,75.11
2023-02-14T04:27:12.753Z,75.06
2023-02-14T04:29:56.214Z,75.32
2023-02-14T04:32:33.057Z,75.40
2023-02-14T04:35:12.450Z,75.32
2023-02-14T04:37:46.826Z,75.39
2023-02-14T04:40:18.268Z,75.63
2023-02-14T04:42:55.383Z,75.71
2023-02-14T04:45:35.156Z,75.51
2023-02-14T04:48:05.445Z,75.73
2023-02-14T04:50:43.858Z,75.74
2023-02-14T04:53:20.956Z,75.53
2023-02-14T04:55:52.192Z,75.67
2023-02-14T04:58:23.662Z,75.68
2023-02-14T05:00:56.022Z,75.87
2023-02-14T05:03:34.224Z,76.32
2023-02-14T05:06:13.144Z,75.72
2023-02-14T05:08:50.311Z,75.24
2023-02-14T05:11:28.364Z,75.41
2023-02-14T05:14:06.188Z,75.50
2023-02-14T05:16:44.183Z,75.35
2023-02-14T05:19:21.847Z,75.68
2023-02-14T05:21:59.645Z,75.57
2023-02-14T05:24:37.099Z,75.58
2023-02-14T05:27:14.894Z,75.84
2023-02-14T05:29:52.454Z,75.62
2023-02-14T05:32:22.819Z,75.78
2023-02-14T05:34:57.034Z,75.85
2023-02-14T05:37:34.555Z,76.00
2023-02-14T05:40:14.519Z,75.86
2023-02-14T05:42:51.506Z,76.12
2023-02-14T05:45:28.742Z,76.01
2023-02-14T05:48:06.404Z,76.29
2023-02-14T05:50:45.809Z,76.26
2023-02-14T05:53:23.134Z,76.44
2023-02-14T05:55:59.866Z,76.03
2023-02-14T05:58:36.911Z,76.45
2023-02-14T06:01:14.772Z,76.30
2023-02-14T06:03:52.101Z,76.31
2023-02-14T06:06:22.356Z,76.29
2023-02-14T06:08:58.393Z,75.76
2023-02-14T06:11:35.055Z,76.20
2023-02-14T06:14:11.880Z,76.07
2023-02-14T06:16:48.976Z,76.24
2023-02-14T06:19:27.042Z,76.34
2023-02-14T06:22:05.805Z,76.20
2023-02-14T06:24:43.043Z,76.11
2023-02-14T06:27:21.297Z,75.93
2023-02-14T06:29:58.719Z,76.09
2023-02-14T06:32:35.420Z,75.85
2023-02-14T06:35:09.329Z,75.76
2023-02-14T06:37:41.790Z,75.68
2023-02-14T06:40:20.214Z,75.66
2023-02-14T06:42:57.407Z,75.68
2023-02-14T06:45:34.727Z,75.68
2023-02-14T06:48:12.671Z,75.74
2023-02-14T06:50:50.322Z,75.51
2023-02-14T06:53:27.499Z,75.70
2023-02-14T06:56:04.605Z,75.51
2023-02-14T06:58:41.620Z,75.44
2023-02-14T07:01:18.560Z,75.80
2023-02-14T07:03:55.005Z,75.78
2023-02-14T07:06:32.469Z,75.62
2023-02-14T07:09:02.476Z,75.68
2023-02-14T07:11:40.083Z,75.31
2023-02-14T07:14:10.586Z,75.31
2023-02-14T07:16:48.180Z,75.35
2023-02-14T07:19:25.326Z,75.32
2023-02-14T07:22:02.209Z,75.31
2023-02-14T07:24:40.050Z,75.02
2023-02-14T07:27:17.892Z,75.23
2023-02-14T07:29:55.283Z,74.90
2023-02-14T07:32:27.489Z,75.19
2023-02-14T07:35:01.703Z,75.19
2023-02-14T07:37:41.145Z,75.10
2023-02-14T07:40:18.686Z,75.17
2023-02-14T07:43:01.589Z,75.20
2023-02-14T07:45:38.890Z,75.26
2023-02-14T07:48:15.880Z,75.36
2023-02-14T07:50:53.496Z,75.30
2023-02-14T07:53:30.711Z,75.08
2023-02-14T07:56:08.613Z,75.15
2023-02-14T07:58:46.036Z,75.09
2023-02-14T08:01:23.196Z,75.13
2023-02-14T08:03:59.903Z,75.04
2023-02-14T08:06:36.281Z,74.88
2023-02-14T08:09:07.745Z,74.71
2023-02-14T08:12:02.326Z,74.74
2023-02-14T08:14:39.706Z,74.44
2023-02-14T08:17:14.402Z,74.65
2023-02-14T08:19:45.850Z,74.68
2023-02-14T08:22:22.348Z,75.04
2023-02-14T08:24:59.077Z,74.76
2023-02-14T08:27:35.842Z,74.54
2023-02-14T08:30:19.877Z,74.39
2023-02-14T08:32:57.647Z,75.01
2023-02-14T08:35:34.978Z,74.99
2023-02-14T08:38:12.653Z,75.10
2023-02-14T08:40:50.236Z,75.36
2023-02-14T08:43:20.853Z,75.04
2023-02-14T08:46:00.681Z,75.15
2023-02-14T08:48:39.543Z,75.12
2023-02-14T08:51:15.138Z,74.77
2023-02-14T08:53:46.933Z,74.60
2023-02-14T08:56:23.287Z,74.65
2023-02-14T08:59:01.207Z,74.41
2023-02-14T09:01:39.080Z,74.18
2023-02-14T09:04:12.217Z,74.22
2023-02-14T09:06:51.815Z,74.41
2023-02-14T09:09:22.953Z,74.52
2023-02-14T09:12:00.204Z,74.40
2023-02-14T09:14:44.893Z,74.11
2023-02-14T09:17:21.652Z,74.06
2023-02-14T09:20:00.048Z,73.87
2023-02-14T09:22:38.784Z,73.98
2023-02-14T09:25:09.403Z,73.79
2023-02-14T09:27:44.576Z,73.52
2023-02-14T09:30:21.135Z,73.63
2023-02-14T09:32:58.558Z,73.81
2023-02-14T09:35:54.863Z,73.67
2023-02-14T09:38:27.229Z,73.62
2023-02-14T09:41:08.170Z,73.42
2023-02-14T09:44:09.958Z,73.15
2023-02-14T09:46:56.521Z,72.98
2023-02-14T09:49:42.624Z,72.56
2023-02-14T09:52:20.925Z,72.39
2023-02-14T09:54:59.225Z,72.50
2023-02-14T09:58:27.969Z,72.48
2023-02-14T10:01:14.848Z,72.34
2023-02-14T10:03:58.193Z,72.30
2023-02-14T10:06:56.903Z,72.51
2023-02-14T10:10:18.346Z,72.56
2023-02-14T10:13:30.740Z,72.72
2023-02-14T10:16:43.595Z,72.49
2023-02-14T10:19:30.697Z,72.81
2023-02-14T10:22:21.179Z,72.69
2023-02-14T10:25:35.130Z,72.67
2023-02-14T10:28:17.005Z,72.43
2023-02-14T10:31:17.994Z,72.44
2023-02-14T10:34:30.183Z,72.20
2023-02-14T10:37:49.000Z,72.40
2023-02-14T10:41:06.877Z,72.04
2023-02-14T10:44:02.517Z,72.01
2023-02-14T10:47:06.380Z,72.08
2023-02-14T10:49:36.985Z,71.87
2023-02-14T10:52:28.245Z,72.23
2023-02-14T10:55:30.077Z,72.38
2023-02-14T10:58:14.426Z,71.92
2023-02-14T11:01:14.817Z,71.55
2023-02-14T11:04:12.181Z,71.40
2023-02-14T11:06:45.290Z,71.52
2023-02-14T11:09:24.612Z,71.37
2023-02-14T11:12:06.339Z,71.46
2023-02-14T11:14:45.112Z,71.64
2023-02-14T11:17:36.728Z,71.87
2023-02-14T11:20:28.610Z,71.47
2023-02-14T11:23:19.617Z,71.49
2023-02-14T11:25:56.751Z,71.26
2023-02-14T11:28:31.171Z,71.22
2023-02-14T11:31:05.863Z,71.33
2023-02-14T11:33:51.389Z,71.28
2023-02-14T11:36:28.922Z,71.38
2023-02-14T11:39:38.898Z,71.07
2023-02-14T11:42:36.957Z,71.47
2023-02-14T11:45:38.212Z,70.94
2023-02-14T11:48:40.236Z,70.99
2023-02-14T11:51:17.202Z,70.52
2023-02-14T11:54:02.949Z,70.42
2023-02-14T11:57:03.759Z,69.97
2023-02-14T11:59:55.592Z,69.63
2023-02-14T12:02:39.080Z,69.66
2023-02-14T12:05:50.559Z,69.89
2023-02-14T12:08:32.630Z,69.76
2023-02-14T12:11:22.429Z,69.86
2023-02-14T12:13:59.050Z,70.01
2023-02-14T12:17:07.376Z,70.08
2023-02-14T12:20:14.177Z,69.52
2023-02-14T12:23:11.835Z,69.36
2023-02-14T12:26:22.494Z,69.20
2023-02-14T12:29:32.883Z,69.31
2023-02-14T12:32:30.644Z,69.43
2023-02-14T12:35:22.094Z,69.11
2023-02-14T12:38:19.031Z,68.94
2023-02-14T12:41:27.000Z,68.57
2023-02-14T12:44:32.237Z,69.18
2023-02-14T12:47:39.035Z,69.19
2023-02-14T12:50:43.366Z,69.35
2023-02-14T12:54:00.241Z,69.58
2023-02-14T12:57:05.798Z,69.39
2023-02-14T13:00:15.541Z,69.29
2023-02-14T13:03:32.792Z,69.20
2023-02-14T13:06:34.364Z,68.74
2023-02-14T13:10:03.257Z,68.97
2023-02-14T13:13:01.829Z,68.82
2023-02-14T13:16:01.215Z,68.60
2023-02-14T13:18:55.682Z,68.52
2023-02-14T13:21:39.533Z,68.71
2023-02-14T13:24:43.976Z,68.75
2023-02-14T13:27:47.513Z,68.75
2023-02-14T13:30:34.379Z,68.75
2023-02-14T13:33:34.727Z,68.52
2023-02-14T13:36:12.827Z,68.89
2023-02-14T13:41:28.177Z,69.05
2023-02-14T13:44:06.106Z,68.82
2023-02-14T13:46:36.977Z,68.92
2023-02-14T13:49:41.061Z,68.70
2023-02-14T13:52:35.652Z,68.87
2023-02-14T13:55:28.437Z,68.73
2023-02-14T13:58:33.505Z,69.02
2023-02-14T14:01:52.007Z,68.78
2023-02-14T14:04:32.877Z,69.02
2023-02-14T14:07:17.748Z,68.51
2023-02-14T14:09:54.372Z,68.53
2023-02-14T14:12:33.516Z,68.60
2023-02-14T14:15:20.336Z,68.75
2023-02-14T14:18:18.626Z,68.95
2023-02-14T14:20:53.962Z,69.17
2023-02-14T14:23:41.403Z,69.09
2023-02-14T14:26:38.871Z,68.93
2023-02-14T14:29:29.710Z,69.06
2023-02-14T14:32:32.866Z,69.24
2023-02-14T14:35:21.644Z,69.45
2023-02-14T14:37:56.877Z,69.46
2023-02-14T14:40:39.100Z,69.60
2023-02-14T14:43:27.540Z,69.54
2023-02-14T14:46:06.727Z,69.49
2023-02-14T14:48:52.107Z,69.52
2023-02-14T14:51:37.130Z,69.33
2023-02-14T14:54:25.817Z,69.60
2023-02-14T14:57:04.372Z,69.34
2023-02-14T14:59:42.150Z,69.58
2023-02-14T15:02:32.660Z,69.28
2023-02-14T15:05:44.664Z,69.57
2023-02-14T15:08:34.870Z,69.43
2023-02-14T15:11:45.709Z,69.66
2023-02-14T15:14:29.249Z,70.04
2023-02-14T15:17:21.533Z,70.03
2023-02-14T15:20:22.101Z,69.98
2023-02-14T15:23:00.192Z,70.16
2023-02-14T15:25:39.657Z,70.14
2023-02-14T15:28:32.803Z,70.06
2023-02-14T15:31:09.292Z,70.01
2023-02-14T15:33:48.837Z,69.90
2023-02-14T15:36:28.312Z,69.84
2023-02-14T15:39:07.871Z,69.96
2023-02-14T15:41:49.028Z,70.06
2023-02-14T15:44:28.134Z,70.27
2023-02-14T15:47:08.274Z,70.49
2023-02-14T15:49:46.946Z,70.49
2023-02-14T15:52:20.395Z,70.64
2023-02-14T15:54:55.524Z,70.27
2023-02-14T15:57:31.103Z,70.69
2023-02-14T16:00:22.011Z,70.77
2023-02-14T16:03:01.007Z,70.80
2023-02-14T16:05:40.161Z,70.88
2023-02-14T16:08:41.458Z,70.80
2023-02-14T16:11:40.272Z,71.29
2023-02-14T16:14:49.789Z,71.56
2023-02-14T16:17:39.107Z,71.87
2023-02-14T16:20:51.688Z,71.82
2023-02-14T16:23:29.748Z,71.89
2023-02-14T16:26:02.081Z,72.11
2023-02-14T16:28:38.141Z,72.28
2023-02-14T16:31:16.998Z,72.65
2023-02-14T16:33:50.748Z,72.67
2023-02-14T16:36:35.809Z,72.46
2023-02-14T16:39:17.304Z,72.59
2023-02-14T16:41:54.406Z,72.81
2023-02-14T16:44:33.140Z,72.80
2023-02-14T16:47:12.784Z,72.98
2023-02-14T16:49:53.296Z,73.31
2023-02-14T16:52:32.221Z,73.27
2023-02-14T16:55:17.609Z,73.46
2023-02-14T16:57:55.316Z,73.50
2023-02-14T17:00:34.708Z,73.40
2023-02-14T17:03:08.361Z,73.42
2023-02-14T17:05:48.265Z,73.38
2023-02-14T17:08:27.767Z,73.68
2023-02-14T17:11:06.378Z,73.86
2023-02-14T17:13:45.484Z,73.88
2023-02-14T17:16:25.518Z,73.77
2023-02-14T17:19:06.754Z,73.74
2023-02-14T17:21:45.982Z,73.66
2023-02-14T17:24:24.295Z,73.67
2023-02-14T17:26:55.519Z,73.81
2023-02-14T17:29:33.463Z,73.97
2023-02-14T17:32:04.983Z,73.88
2023-02-14T17:34:41.580Z,74.09
2023-02-14T17:37:19.650Z,74.29
2023-02-14T17:39:55.584Z,74.33
2023-02-14T17:42:35.236Z,74.18
2023-02-14T17:45:13.313Z,74.36
2023-02-14T17:47:50.424Z,74.58
2023-02-14T17:50:28.593Z,74.83
2023-02-14T17:53:07.490Z,74.88
2023-02-14T17:55:44.706Z,74.86
2023-02-14T17:58:14.964Z,75.00
2023-02-14T18:00:53.022Z,75.11
2023-02-14T18:03:23.142Z,74.90
2023-02-14T18:05:53.853Z,75.09
2023-02-14T18:08:37.499Z,74.93
2023-02-14T18:11:11.537Z,74.98
2023-02-14T18:13:51.025Z,74.92
2023-02-14T18:16:25.477Z,75.73
2023-02-14T18:19:09.492Z,75.52
2023-02-14T18:21:48.465Z,75.65
2023-02-14T18:24:18.982Z,75.57
2023-02-14T18:26:54.891Z,75.52
2023-02-14T18:29:34.424Z,75.45
2023-02-14T18:32:06.259Z,75.58
2023-02-14T18:34:38.383Z,75.77
2023-02-14T18:37:13.049Z,75.84
2023-02-14T18:39:51.610Z,76.08
2023-02-14T18:42:29.332Z,75.81
2023-02-14T18:45:07.536Z,76.07
2023-02-14T18:47:45.907Z,75.91
2023-02-14T18:50:24.366Z,76.11
2023-02-14T18:52:54.898Z,76.23
2023-02-14T18:55:27.938Z,76.05
2023-02-14T18:58:02.464Z,76.12
2023-02-14T19:00:41.144Z,76.42
2023-02-14T19:03:18.826Z,76.44
2023-02-14T19:05:55.266Z,76.63
2023-02-14T19:08:37.138Z,76.66
2023-02-14T19:11:23.804Z,76.71
2023-02-14T19:13:57.809Z,76.94
2023-02-14T19:16:39.860Z,76.85
2023-02-14T19:19:18.470Z,76.74
2023-02-14T19:21:56.611Z,76.94
2023-02-14T19:24:35.074Z,76.81
2023-02-14T19:27:06.897Z,76.92
2023-02-14T19:29:46.471Z,77.06
2023-02-14T19:32:17.526Z,77.08
2023-02-14T19:34:51.398Z,77.21
2023-02-14T19:37:24.981Z,77.10
2023-02-14T19:39:57.553Z,77.17
2023-02-14T19:42:37.175Z,77.42
2023-02-14T19:45:15.460Z,77.64
2023-02-14T19:47:53.127Z,77.33
2023-02-14T19:50:31.734Z,77.57
2023-02-14T19:53:01.948Z,77.70
2023-02-14T19:55:33.731Z,77.61
2023-02-14T19:58:04.127Z,77.75
2023-02-14T20:00:42.195Z,78.16
2023-02-14T20:03:20.805Z,78.09
2023-02-14T20:05:55.208Z,77.73
2023-02-14T20:08:35.014Z,77.79
2023-02-14T20:11:05.193Z,77.93
2023-02-14T20:13:44.247Z,77.98
2023-02-14T20:16:14.594Z,77.83
2023-02-14T20:18:45.089Z,77.95
2023-02-14T20:21:28.608Z,78.06
2023-02-14T20:24:04.719Z,77.75
2023-02-14T20:26:43.080Z,77.91
2023-02-14T20:29:21.532Z,77.89
2023-02-14T20:32:04.299Z,78.06
2023-02-14T20:34:43.208Z,77.84
2023-02-14T20:37:13.500Z,78.29
2023-02-14T20:39:51.896Z,78.11
2023-02-14T20:42:24.027Z,78.23
2023-02-14T20:44:57.683Z,78.09
2023-02-14T20:47:29.001Z,78.04
2023-02-14T20:49:59.187Z,78.28
2023-02-14T20:52:37.816Z,78.22
2023-02-14T20:55:15.737Z,78.75
2023-02-14T20:57:53.215Z,78.59
2023-02-14T21:00:26.606Z,78.58
2023-02-14T21:02:58.093Z,78.54
2023-02-14T21:05:29.284Z,78.81
2023-02-14T21:08:01.396Z,79.05
2023-02-14T21:10:35.591Z,79.10
2023-02-14T21:13:13.758Z,78.54
2023-02-14T21:15:51.544Z,78.76
2023-02-14T21:18:22.543Z,78.53
2023-02-14T21:21:09.124Z,79.12
2023-02-14T21:23:49.654Z,78.80
2023-02-14T21:26:26.080Z,79.16
2023-02-14T21:28:57.517Z,79.36
2023-02-14T21:31:28.890Z,79.16
2023-02-14T21:34:02.727Z,79.07
2023-02-14T21:36:38.562Z,78.98
2023-02-14T21:39:16.638Z,78.98
2023-02-14T21:41:54.702Z,78.81
2023-02-14T21:44:51.339Z,78.71
2023-02-14T21:47:27.889Z,78.72
2023-02-14T21:50:16.230Z,78.55
2023-02-14T21:52:47.927Z,78.50
2023-02-14T21:55:26.205Z,78.63
2023-02-14T21:57:57.869Z,78.65
2023-02-14T22:00:28.216Z,78.66
2023-02-14T22:02:58.598Z,78.44
2023-02-14T22:05:29.615Z,78.62
2023-02-14T22:08:00.212Z,78.69
2023-02-14T22:10:40.952Z,78.34
2023-02-14T22:13:18.463Z,78.63
2023-02-14T22:15:56.542Z,78.49
2023-02-14T22:18:34.447Z,78.30
2023-02-14T22:21:19.464Z,78.17
2023-02-14T22:23:59.036Z,78.09
2023-02-14T22:26:41.635Z,78.23
2023-02-14T22:29:18.700Z,78.15
2023-02-14T22:31:56.978Z,78.04
2023-02-14T22:34:36.371Z,77.68
2023-02-14T22:37:14.115Z,77.94
2023-02-14T22:39:51.864Z,78.00
2023-02-14T22:42:29.534Z,77.79
2023-02-14T22:45:01.548Z,77.69
2023-02-14T22:47:32.970Z,77.68
2023-02-14T22:50:03.047Z,77.56
2023-02-14T22:52:41.127Z,77.59
2023-02-14T22:55:19.533Z,77.49
2023-02-14T22:57:57.473Z,77.40
2023-02-14T23:00:36.046Z,77.50
2023-02-14T23:03:13.943Z,77.59
2023-02-14T23:05:57.459Z,77.41
2023-02-14T23:08:34.868Z,77.13
2023-02-14T23:11:22.202Z,77.10
2023-02-14T23:14:16.955Z,77.24
2023-02-14T23:17:09.900Z,77.14
2023-02-14T23:20:06.447Z,77.12
2023-02-14T23:22:44.915Z,77.09
2023-02-14T23:25:22.016Z,77.19
2023-02-14T23:28:00.050Z,77.07
2023-02-14T23:30:53.591Z,76.67
2023-02-14T23:33:24.024Z,76.52
2023-02-14T23:36:03.262Z,76.51
2023-02-14T23:38:41.851Z,76.51
2023-02-14T23:41:37.512Z,76.78
2023-02-14T23:44:09.220Z,76.57
2023-02-14T23:46:47.741Z,76.63
2023-02-14T23:49:25.708Z,76.68
2023-02-14T23:52:02.040Z,76.59
2023-02-14T23:54:39.731Z,76.35
2023-02-14T23:57:17.558Z,76.52
2023-02-14T23:59:55.767Z,76.53
